createdAt,value
2023-12-23T00:01:40.254Z,99698.09
2023-12-23T00:04:12.597Z,99699.97
2023-12-23T00:06:43.181Z,99699.03
2023-12-23T00:09:16.554Z,99699.03
2023-12-23T00:11:46.452Z,99721.03
2023-12-23T00:14:16.408Z,99714.81
2023-12-23T00:16:46.304Z,99713.13
2023-12-23T00:19:18.774Z,99727.13
2023-12-23T00:21:48.852Z,99727.97
2023-12-23T00:24:18.751Z,99721.03
2023-12-23T00:26:48.825Z,99723.66
2023-12-23T00:29:18.696Z,99728.03
2023-12-23T00:31:49.127Z,99728.09
2023-12-23T00:34:21.598Z,99723.75
2023-12-23T00:36:51.421Z,99731.59
2023-12-23T00:39:21.232Z,99730.81
2023-12-23T00:41:51.015Z,99726.38
2023-12-23T00:44:20.785Z,99730.81
2023-12-23T00:46:50.542Z,99733.56
2023-12-23T00:49:23.278Z,99734.47
2023-12-23T00:51:53.064Z,99735.38
2023-12-23T00:54:24.412Z,99735.50
2023-12-23T00:56:54.186Z,99728.53
2023-12-23T00:59:24.226Z,99729.50
2023-12-23T01:01:54.892Z,99733.06
2023-12-23T01:04:28.814Z,99736.59
2023-12-23T01:06:58.938Z,99732.19
2023-12-23T01:09:28.713Z,99733.97
2023-12-23T01:11:58.480Z,99738.44
2023-12-23T01:14:28.260Z,99743.69
2023-12-23T01:16:58.160Z,99737.66
2023-12-23T01:19:30.472Z,99735.00
2023-12-23T01:22:00.227Z,99731.56
2023-12-23T01:24:29.980Z,99749.19
2023-12-23T01:27:00.922Z,99734.31
2023-12-23T01:29:30.714Z,99732.59
2023-12-23T01:32:00.507Z,99728.25
2023-12-23T01:34:33.280Z,99722.19
2023-12-23T01:37:03.170Z,99726.72
2023-12-23T01:39:32.902Z,99732.94
2023-12-23T01:42:02.676Z,99733.88
2023-12-23T01:44:32.884Z,99735.69
2023-12-23T01:47:03.721Z,99733.06
2023-12-23T01:49:36.589Z,99741.84
2023-12-23T01:52:06.777Z,99738.34
2023-12-23T01:54:37.172Z,99738.41
2023-12-23T01:57:07.102Z,99738.47
2023-12-23T01:59:36.870Z,99739.50
2023-12-23T02:02:08.016Z,99735.19
2023-12-23T02:04:40.469Z,99734.41
2023-12-23T02:07:10.280Z,99733.59
2023-12-23T02:09:40.281Z,99738.00
2023-12-23T02:12:15.337Z,99736.28
2023-12-23T02:14:50.181Z,99725.81
2023-12-23T02:17:20.047Z,99730.28
2023-12-23T02:19:52.467Z,99725.88
2023-12-23T02:22:24.894Z,99720.56
2023-12-23T02:24:54.664Z,99717.13
2023-12-23T02:27:29.033Z,99718.91
2023-12-23T02:29:59.315Z,99725.88
2023-12-23T02:32:29.771Z,99722.31
2023-12-23T02:34:59.881Z,99718.78
2023-12-23T02:37:32.218Z,99714.41
2023-12-23T02:40:02.032Z,99705.56
2023-12-23T02:42:31.858Z,99695.88
2023-12-23T02:45:01.648Z,99693.16
2023-12-23T02:47:31.422Z,99686.06
2023-12-23T02:50:01.298Z,99675.50
2023-12-23T02:52:33.741Z,99668.41
2023-12-23T02:55:03.803Z,99675.38
2023-12-23T02:57:33.917Z,99665.66
2023-12-23T03:00:04.197Z,99653.44
2023-12-23T03:02:33.945Z,99644.53
2023-12-23T03:05:03.789Z,99647.97
2023-12-23T03:07:38.062Z,99660.16
2023-12-23T03:10:08.822Z,99647.84
2023-12-23T03:12:38.646Z,99639.06
2023-12-23T03:15:09.531Z,99628.53
2023-12-23T03:17:39.379Z,99640.78
2023-12-23T03:20:13.221Z,99631.94
2023-12-23T03:22:46.662Z,99631.84
2023-12-23T03:25:16.572Z,99621.19
2023-12-23T03:27:46.296Z,99619.41
2023-12-23T03:30:16.920Z,99609.63
2023-12-23T03:32:46.792Z,99602.56
2023-12-23T03:35:17.299Z,99601.66
2023-12-23T03:37:50.043Z,99598.13
2023-12-23T03:40:20.279Z,99591.06
2023-12-23T03:42:51.647Z,99591.06
2023-12-23T03:45:23.618Z,99589.25
2023-12-23T03:47:53.765Z,99585.69
2023-12-23T03:50:23.594Z,99576.84
2023-12-23T03:52:56.015Z,99573.19
2023-12-23T03:55:30.453Z,99580.03
2023-12-23T03:58:00.245Z,99568.44
2023-12-23T04:00:30.085Z,99567.34
2023-12-23T04:02:59.840Z,99559.06
2023-12-23T04:05:29.588Z,99563.19
2023-12-23T04:08:01.977Z,99569.94
2023-12-23T04:10:31.785Z,99572.34
2023-12-23T04:13:01.633Z,99559.91
2023-12-23T04:15:31.425Z,99562.47
2023-12-23T04:18:01.361Z,99566.75
2023-12-23T04:20:31.506Z,99556.16
2023-12-23T04:23:03.946Z,99556.16
2023-12-23T04:25:33.807Z,99556.16
2023-12-23T04:28:03.687Z,99559.63
2023-12-23T04:30:34.078Z,99559.63
2023-12-23T04:33:04.012Z,99561.44
2023-12-23T04:35:33.847Z,99561.44
2023-12-23T04:38:07.864Z,99557.91
2023-12-23T04:40:37.714Z,99548.31
2023-12-23T04:43:08.094Z,99543.06
2023-12-23T04:45:37.930Z,99537.88
2023-12-23T04:48:08.714Z,99538.78
2023-12-23T04:50:38.537Z,99537.91
2023-12-23T04:53:11.336Z,99522.09
2023-12-23T04:55:41.102Z,99524.72
2023-12-23T04:58:10.911Z,99526.53
2023-12-23T05:00:41.386Z,99525.69
2023-12-23T05:03:11.175Z,99522.09
2023-12-23T05:05:43.090Z,99517.78
2023-12-23T05:08:18.370Z,99510.78
2023-12-23T05:10:48.968Z,99517.78
2023-12-23T05:13:19.027Z,99522.19
2023-12-23T05:15:48.835Z,99511.56
2023-12-23T05:18:18.721Z,99503.75
2023-12-23T05:20:48.652Z,99497.63
2023-12-23T05:23:21.060Z,99495.91
2023-12-23T05:25:51.895Z,99509.06
2023-12-23T05:28:21.797Z,99492.44
2023-12-23T05:30:51.647Z,99495.91
2023-12-23T05:33:26.017Z,99493.28
2023-12-23T05:35:56.173Z,99482.66
2023-12-23T05:38:28.526Z,99495.84
2023-12-23T05:40:58.314Z,99494.06
2023-12-23T05:43:30.597Z,99478.28
2023-12-23T05:46:00.528Z,99483.53
2023-12-23T05:48:30.480Z,99502.81
2023-12-23T05:51:00.339Z,99490.50
2023-12-23T05:53:32.668Z,99493.13
2023-12-23T05:56:02.461Z,99486.09
2023-12-23T05:58:32.253Z,99490.47
2023-12-23T06:01:02.381Z,99501.84
2023-12-23T06:03:32.181Z,99508.81
2023-12-23T06:06:02.417Z,99505.25
2023-12-23T06:08:34.808Z,99505.19
2023-12-23T06:11:05.906Z,99505.13
2023-12-23T06:13:36.088Z,99515.59
2023-12-23T06:16:09.685Z,99507.63
2023-12-23T06:18:39.506Z,99504.13
2023-12-23T06:21:09.791Z,99517.22
2023-12-23T06:23:42.220Z,99509.34
2023-12-23T06:26:13.784Z,99507.47
2023-12-23T06:28:43.583Z,99502.94
2023-12-23T06:31:13.328Z,99510.59
2023-12-23T06:33:43.236Z,99511.41
2023-12-23T06:36:13.334Z,99504.28
2023-12-23T06:38:45.834Z,99506.00
2023-12-23T06:41:16.256Z,99496.25
2023-12-23T06:43:52.053Z,99504.16
2023-12-23T06:46:23.098Z,99499.72
2023-12-23T06:48:55.180Z,99492.75
2023-12-23T06:51:25.159Z,99499.81
2023-12-23T06:53:59.314Z,99489.28
2023-12-23T06:56:28.803Z,99489.28
2023-12-23T06:59:00.806Z,99497.16
2023-12-23T07:01:40.191Z,99495.44
2023-12-23T07:04:10.303Z,99483.13
2023-12-23T07:06:40.172Z,99484.16
2023-12-23T07:09:12.573Z,99492.09
2023-12-23T07:11:42.302Z,99489.53
2023-12-23T07:14:12.145Z,99475.59
2023-12-23T07:16:44.096Z,99487.03
2023-12-23T07:19:14.830Z,99491.41
2023-12-23T07:21:45.291Z,99479.16
2023-12-23T07:24:17.613Z,99470.47
2023-12-23T07:26:47.334Z,99474.88
2023-12-23T07:29:17.137Z,99481.84
2023-12-23T07:31:46.966Z,99486.28
2023-12-23T07:34:16.897Z,99483.66
2023-12-23T07:36:46.670Z,99489.69
2023-12-23T07:39:19.007Z,99479.97
2023-12-23T07:41:48.841Z,99483.56
2023-12-23T07:44:18.647Z,99482.69
2023-12-23T07:46:48.869Z,99487.13
2023-12-23T07:49:18.675Z,99486.28
2023-12-23T07:51:49.323Z,99490.66
2023-12-23T07:54:21.787Z,99498.66
2023-12-23T07:56:51.613Z,99498.66
2023-12-23T07:59:21.587Z,99504.84
2023-12-23T08:01:51.626Z,99506.56
2023-12-23T08:04:22.010Z,99507.47
2023-12-23T08:06:51.822Z,99517.09
2023-12-23T08:09:24.599Z,99510.97
2023-12-23T08:11:54.435Z,99500.44
2023-12-23T08:14:24.247Z,99510.97
2023-12-23T08:16:54.243Z,99502.19
2023-12-23T08:19:24.133Z,99509.19
2023-12-23T08:21:53.889Z,99508.34
2023-12-23T08:24:26.450Z,99509.19
2023-12-23T08:26:57.804Z,99509.19
2023-12-23T08:29:28.142Z,99498.56
2023-12-23T08:31:58.008Z,99499.44
2023-12-23T08:34:28.772Z,99507.34
2023-12-23T08:36:58.595Z,99504.72
2023-12-23T08:39:31.294Z,99500.22
2023-12-23T08:42:01.114Z,99507.22
2023-12-23T08:44:30.907Z,99503.66
2023-12-23T08:47:00.711Z,99500.06
2023-12-23T08:49:30.508Z,99495.59
2023-12-23T08:52:00.273Z,99495.53
2023-12-23T08:54:32.653Z,99491.03
2023-12-23T08:57:02.417Z,99502.38
2023-12-23T08:59:32.155Z,99502.28
2023-12-23T09:02:03.935Z,99511.00
2023-12-23T09:04:33.724Z,99520.59
2023-12-23T09:07:03.748Z,99524.88
2023-12-23T09:09:36.083Z,99525.66
2023-12-23T09:12:06.355Z,99539.53
2023-12-23T09:14:36.178Z,99543.91
2023-12-23T09:17:07.398Z,99538.47
2023-12-23T09:19:37.204Z,99540.03
2023-12-23T09:22:07.563Z,99531.16
2023-12-23T09:24:42.740Z,99529.16
2023-12-23T09:27:12.532Z,99526.28
2023-12-23T09:29:42.274Z,99538.47
2023-12-23T09:32:12.078Z,99534.84
2023-12-23T09:34:41.864Z,99534.72
2023-12-23T09:37:11.621Z,99537.06
2023-12-23T09:39:43.951Z,99542.19
2023-12-23T09:42:14.352Z,99542.81
2023-12-23T09:44:44.382Z,99534.69
2023-12-23T09:47:14.222Z,99541.53
2023-12-23T09:49:44.447Z,99551.88
2023-12-23T09:52:15.465Z,99542.88
2023-12-23T09:54:50.467Z,99545.38
2023-12-23T09:57:20.535Z,99557.47
2023-12-23T09:59:53.602Z,99560.91
2023-12-23T10:02:23.490Z,99575.75
2023-12-23T10:04:53.262Z,99559.84
2023-12-23T10:07:23.041Z,99563.41
2023-12-23T10:09:55.374Z,99565.31
2023-12-23T10:12:25.313Z,99563.75
2023-12-23T10:14:55.648Z,99569.19
2023-12-23T10:17:25.545Z,99568.47
2023-12-23T10:19:57.154Z,99581.88
2023-12-23T10:22:27.263Z,99579.47
2023-12-23T10:25:01.952Z,99582.31
2023-12-23T10:27:34.292Z,99589.56
2023-12-23T10:30:07.231Z,99593.25
2023-12-23T10:32:37.904Z,99600.44
2023-12-23T10:35:13.309Z,99591.78
2023-12-23T10:37:44.789Z,99580.47
2023-12-23T10:40:21.962Z,99578.75
2023-12-23T10:42:52.681Z,99579.59
2023-12-23T10:45:23.918Z,99584.03
2023-12-23T10:47:55.577Z,99588.47
2023-12-23T10:50:26.534Z,99592.84
2023-12-23T10:52:55.255Z,99590.16
2023-12-23T10:55:28.233Z,99573.47
2023-12-23T10:57:58.935Z,99585.81
2023-12-23T11:00:28.941Z,99583.94
2023-12-23T11:03:01.352Z,99583.88
2023-12-23T11:05:31.765Z,99577.63
2023-12-23T11:08:10.202Z,99576.78
2023-12-23T11:10:47.307Z,99579.41
2023-12-23T11:13:17.429Z,99565.41
2023-12-23T11:15:47.220Z,99585.75
2023-12-23T11:18:17.259Z,99585.75
2023-12-23T11:20:49.139Z,99591.88
2023-12-23T11:23:36.083Z,99590.16
2023-12-23T11:26:08.990Z,99584.03
2023-12-23T11:28:40.324Z,99591.94
2023-12-23T11:31:10.521Z,99589.31
2023-12-23T11:33:40.933Z,99585.75
2023-12-23T11:36:12.065Z,99598.00
2023-12-23T11:38:53.627Z,99605.03
2023-12-23T11:41:26.819Z,99598.00
2023-12-23T11:43:57.400Z,99596.28
2023-12-23T11:46:28.738Z,99604.13
2023-12-23T11:49:01.310Z,99602.22
2023-12-23T11:51:31.537Z,99597.94
2023-12-23T11:54:01.788Z,99596.16
2023-12-23T11:56:34.751Z,99592.59
2023-12-23T11:59:05.261Z,99590.78
2023-12-23T12:01:37.186Z,99583.75
2023-12-23T12:04:08.286Z,99579.34
2023-12-23T12:06:38.076Z,99571.34
2023-12-23T12:09:09.958Z,99572.19
2023-12-23T12:11:42.998Z,99574.78
2023-12-23T12:14:15.064Z,99559.81
2023-12-23T12:16:45.218Z,99562.38
2023-12-23T12:19:17.034Z,99565.78
2023-12-23T12:21:47.580Z,99568.28
2023-12-23T12:24:17.875Z,99565.56
2023-12-23T12:26:54.140Z,99561.94
2023-12-23T12:29:25.153Z,99560.00
2023-12-23T12:31:55.224Z,99561.56
2023-12-23T12:34:25.209Z,99573.47
2023-12-23T12:36:55.128Z,99573.88
2023-12-23T12:39:24.935Z,99569.97
2023-12-23T12:41:57.270Z,99574.88
2023-12-23T12:44:27.741Z,99572.78
2023-12-23T12:46:59.430Z,99585.69
2023-12-23T12:49:29.305Z,99593.22
2023-12-23T12:51:59.082Z,99593.78
2023-12-23T12:54:30.393Z,99586.50
2023-12-23T12:57:03.936Z,99577.47
2023-12-23T12:59:33.734Z,99590.59
2023-12-23T13:02:03.571Z,99583.59
2023-12-23T13:04:33.328Z,99580.34
2023-12-23T13:07:03.130Z,99585.94
2023-12-23T13:09:32.898Z,99589.75
2023-12-23T13:12:05.743Z,99583.81
2023-12-23T13:14:35.477Z,99600.75
2023-12-23T13:17:05.262Z,99603.53
2023-12-23T13:19:35.719Z,99613.19
2023-12-23T13:22:05.555Z,99616.66
2023-12-23T13:24:35.561Z,99616.50
2023-12-23T13:27:08.180Z,99610.22
2023-12-23T13:29:38.410Z,99609.16
2023-12-23T13:32:09.343Z,99613.34
2023-12-23T13:34:39.196Z,99617.63
2023-12-23T13:37:09.011Z,99620.97
2023-12-23T13:39:38.774Z,99629.66
2023-12-23T13:42:11.198Z,99634.72
2023-12-23T13:44:41.067Z,99637.97
2023-12-23T13:47:10.925Z,99628.97
2023-12-23T13:49:40.844Z,99634.13
2023-12-23T13:52:10.713Z,99640.00
2023-12-23T13:54:40.490Z,99638.09
2023-12-23T13:57:12.978Z,99641.47
2023-12-23T13:59:43.497Z,99639.63
2023-12-23T14:02:13.290Z,99645.75
2023-12-23T14:04:43.345Z,99658.97
2023-12-23T14:07:13.128Z,99655.50
2023-12-23T14:09:42.981Z,99657.97
2023-12-23T14:12:15.391Z,99651.75
2023-12-23T14:14:45.140Z,99651.75
2023-12-23T14:17:14.957Z,99654.31
2023-12-23T14:19:45.351Z,99673.63
2023-12-23T14:22:17.699Z,99676.19
2023-12-23T14:24:48.730Z,99677.91
2023-12-23T14:27:21.163Z,99687.44
2023-12-23T14:29:51.015Z,99684.88
2023-12-23T14:32:20.989Z,99686.88
2023-12-23T14:34:51.080Z,99682.69
2023-12-23T14:37:21.327Z,99681.06
2023-12-23T14:39:51.366Z,99674.91
2023-12-23T14:42:24.011Z,99687.34
2023-12-23T14:44:54.048Z,99704.22
2023-12-23T14:47:24.193Z,99705.22
2023-12-23T14:49:54.521Z,99709.78
2023-12-23T14:52:24.657Z,99710.78
2023-12-23T14:54:54.641Z,99702.00
2023-12-23T14:57:27.390Z,99700.22
2023-12-23T14:59:57.501Z,99723.13
2023-12-23T15:02:27.699Z,99720.59
2023-12-23T15:04:57.584Z,99710.94
2023-12-23T15:07:30.079Z,99717.09
2023-12-23T15:09:59.871Z,99709.22
2023-12-23T15:12:34.269Z,99714.50
2023-12-23T15:15:04.954Z,99718.09
2023-12-23T15:17:35.026Z,99730.34
2023-12-23T15:20:05.412Z,99730.34
2023-12-23T15:22:35.207Z,99730.34
2023-12-23T15:25:05.032Z,99727.78
2023-12-23T15:27:37.390Z,99726.13
2023-12-23T15:30:07.930Z,99730.81
2023-12-23T15:32:37.797Z,99733.72
2023-12-23T15:35:08.620Z,99732.25
2023-12-23T15:37:38.478Z,99728.94
2023-12-23T15:40:09.990Z,99732.66
2023-12-23T15:42:42.359Z,99745.09
2023-12-23T15:45:12.451Z,99755.66
2023-12-23T15:47:42.325Z,99747.66
2023-12-23T15:50:13.411Z,99749.38
2023-12-23T15:52:43.154Z,99757.34
2023-12-23T15:55:12.970Z,99755.66
2023-12-23T15:57:45.287Z,99753.03
2023-12-23T16:00:16.720Z,99751.22
2023-12-23T16:02:46.513Z,99755.50
2023-12-23T16:05:16.445Z,99755.50
2023-12-23T16:07:46.218Z,99754.69
2023-12-23T16:10:16.080Z,99771.56
2023-12-23T16:12:48.628Z,99773.41
2023-12-23T16:15:18.554Z,99772.63
2023-12-23T16:17:48.413Z,99770.03
2023-12-23T16:20:18.248Z,99777.13
2023-12-23T16:22:48.218Z,99767.47
2023-12-23T16:25:18.090Z,99784.31
2023-12-23T16:27:50.453Z,99793.19
2023-12-23T16:30:20.699Z,99785.31
2023-12-23T16:32:52.396Z,99792.59
2023-12-23T16:35:22.473Z,99797.03
2023-12-23T16:37:52.345Z,99804.25
2023-12-23T16:40:23.105Z,99801.66
2023-12-23T16:42:55.687Z,99800.88
2023-12-23T16:45:25.493Z,99806.38
2023-12-23T16:47:55.552Z,99809.06
2023-12-23T16:50:25.367Z,99805.63
2023-12-23T16:52:55.627Z,99798.66
2023-12-23T16:55:25.457Z,99800.50
2023-12-23T16:57:57.803Z,99797.91
2023-12-23T17:00:27.961Z,99803.19
2023-12-23T17:02:58.139Z,99800.63
2023-12-23T17:05:28.527Z,99807.69
2023-12-23T17:07:58.508Z,99804.25
2023-12-23T17:10:28.995Z,99801.59
2023-12-23T17:13:02.305Z,99808.69
2023-12-23T17:15:32.048Z,99810.41
2023-12-23T17:18:04.693Z,99815.75
2023-12-23T17:20:34.609Z,99810.53
2023-12-23T17:23:04.699Z,99804.31
2023-12-23T17:25:34.519Z,99799.03
2023-12-23T17:28:11.346Z,99799.84
2023-12-23T17:30:42.715Z,99795.34
2023-12-23T17:33:14.341Z,99789.16
2023-12-23T17:35:44.705Z,99785.53
2023-12-23T17:38:14.514Z,99792.44
2023-12-23T17:40:45.976Z,99796.81
2023-12-23T17:43:18.407Z,99794.03
2023-12-23T17:45:48.245Z,99789.53
2023-12-23T17:48:18.051Z,99785.06
2023-12-23T17:50:47.947Z,99783.13
2023-12-23T17:53:17.932Z,99785.56
2023-12-23T17:55:47.931Z,99783.72
2023-12-23T17:58:20.478Z,99784.44
2023-12-23T18:00:50.426Z,99793.09
2023-12-23T18:03:20.436Z,99779.75
2023-12-23T18:05:50.215Z,99776.06
2023-12-23T18:08:20.264Z,99775.91
2023-12-23T18:10:50.105Z,99784.53
2023-12-23T18:13:23.369Z,99783.47
2023-12-23T18:15:53.152Z,99781.59
2023-12-23T18:18:22.978Z,99777.97
2023-12-23T18:20:53.348Z,99782.19
2023-12-23T18:23:23.230Z,99784.75
2023-12-23T18:25:53.164Z,99782.06
2023-12-23T18:28:25.596Z,99784.63
2023-12-23T18:30:55.441Z,99777.56
2023-12-23T18:33:25.500Z,99771.41
2023-12-23T18:35:55.502Z,99784.75
2023-12-23T18:38:25.400Z,99791.91
2023-12-23T18:40:55.209Z,99791.06
2023-12-23T18:43:27.578Z,99786.69
2023-12-23T18:45:57.360Z,99784.06
2023-12-23T18:48:27.233Z,99792.75
2023-12-23T18:50:57.024Z,99794.47
2023-12-23T18:53:26.988Z,99795.31
2023-12-23T18:55:56.802Z,99808.47
2023-12-23T18:58:29.273Z,99794.31
2023-12-23T19:00:59.359Z,99802.16
2023-12-23T19:03:29.203Z,99796.88
2023-12-23T19:06:00.656Z,99800.31
2023-12-23T19:08:30.479Z,99794.13
2023-12-23T19:11:00.279Z,99794.03
2023-12-23T19:13:32.755Z,99790.47
2023-12-23T19:16:02.601Z,99787.75
2023-12-23T19:18:32.590Z,99804.47
2023-12-23T19:21:02.806Z,99811.47
2023-12-23T19:23:33.313Z,99800.91
2023-12-23T19:26:03.235Z,99809.59
2023-12-23T19:28:37.371Z,99794.63
2023-12-23T19:31:07.127Z,99814.88
2023-12-23T19:33:36.915Z,99806.09
2023-12-23T19:36:07.517Z,99816.59
2023-12-23T19:38:37.328Z,99812.09
2023-12-23T19:41:07.420Z,99805.88
2023-12-23T19:43:39.788Z,99806.66
2023-12-23T19:46:09.814Z,99804.88
2023-12-23T19:48:39.712Z,99803.03
2023-12-23T19:51:09.542Z,99815.31
2023-12-23T19:53:39.357Z,99803.81
2023-12-23T19:56:10.727Z,99814.28
2023-12-23T19:58:43.206Z,99814.25
2023-12-23T20:01:13.004Z,99815.00
2023-12-23T20:03:43.008Z,99813.22
2023-12-23T20:06:14.151Z,99811.44
2023-12-23T20:08:44.486Z,99807.00
2023-12-23T20:11:14.385Z,99809.66
2023-12-23T20:13:46.850Z,99810.56
2023-12-23T20:16:25.674Z,99811.44
2023-12-23T20:18:56.196Z,99805.25
2023-12-23T20:21:27.026Z,99804.38
2023-12-23T20:23:56.880Z,99803.44
2023-12-23T20:26:26.776Z,99805.25
2023-12-23T20:28:59.217Z,99811.38
2023-12-23T20:31:28.989Z,99808.72
2023-12-23T20:34:00.209Z,99816.72
2023-12-23T20:36:30.091Z,99805.28
2023-12-23T20:39:00.059Z,99812.28
2023-12-23T20:41:29.919Z,99804.38
2023-12-23T20:44:02.332Z,99804.44
2023-12-23T20:46:32.142Z,99810.56
2023-12-23T20:49:02.572Z,99815.84
2023-12-23T20:51:32.415Z,99809.66
2023-12-23T20:54:02.233Z,99821.16
2023-12-23T20:56:33.148Z,99824.66
2023-12-23T20:59:05.573Z,99822.88
2023-12-23T21:01:35.451Z,99826.44
2023-12-23T21:04:08.609Z,99821.16
2023-12-23T21:06:38.656Z,99817.56
2023-12-23T21:09:11.153Z,99824.75
2023-12-23T21:11:40.916Z,99805.28
2023-12-23T21:14:13.357Z,99805.28
2023-12-23T21:16:43.085Z,99812.38
2023-12-23T21:19:12.923Z,99807.16
2023-12-23T21:21:43.423Z,99798.31
2023-12-23T21:24:13.190Z,99814.16
2023-12-23T21:26:43.069Z,99808.09
2023-12-23T21:29:15.478Z,99800.16
2023-12-23T21:31:45.298Z,99804.59
2023-12-23T21:34:15.864Z,99799.31
2023-12-23T21:36:45.631Z,99799.31
2023-12-23T21:39:15.398Z,99800.22
2023-12-23T21:41:45.199Z,99811.72
2023-12-23T21:44:17.572Z,99805.69
2023-12-23T21:46:47.389Z,99818.97
2023-12-23T21:49:17.190Z,99816.31
2023-12-23T21:51:47.007Z,99804.03
2023-12-23T21:54:16.917Z,99819.88
2023-12-23T21:56:46.753Z,99820.81
2023-12-23T21:59:19.198Z,99816.44
2023-12-23T22:01:48.982Z,99815.59
2023-12-23T22:04:18.743Z,99817.38
2023-12-23T22:06:48.745Z,99813.03
2023-12-23T22:09:18.876Z,99809.53
2023-12-23T22:11:48.616Z,99820.09
2023-12-23T22:14:21.233Z,99821.88
2023-12-23T22:16:51.038Z,99823.66
2023-12-23T22:19:20.888Z,99810.47
2023-12-23T22:21:50.760Z,99809.59
2023-12-23T22:24:20.519Z,99813.19
2023-12-23T22:26:50.328Z,99806.19
2023-12-23T22:29:22.945Z,99805.34
2023-12-23T22:31:53.067Z,99801.88
2023-12-23T22:34:22.907Z,99804.53
2023-12-23T22:36:57.122Z,99799.31
2023-12-23T22:39:27.004Z,99779.03
2023-12-23T22:41:56.852Z,99780.75
2023-12-23T22:44:29.272Z,99778.13
2023-12-23T22:46:59.124Z,99775.47
2023-12-23T22:49:28.905Z,99777.19
2023-12-23T22:51:58.680Z,99770.13
2023-12-23T22:54:28.422Z,99763.91
2023-12-23T22:57:00.789Z,99769.13
2023-12-23T22:59:33.731Z,99757.72
2023-12-23T23:02:04.211Z,99759.47
2023-12-23T23:04:34.021Z,99754.13
2023-12-23T23:07:03.806Z,99738.28
2023-12-23T23:09:33.693Z,99737.44
2023-12-23T23:12:03.461Z,99750.56
2023-12-23T23:14:33.639Z,99744.34
2023-12-23T23:17:04.283Z,99740.78
2023-12-23T23:19:35.231Z,99736.28
2023-12-23T23:22:05.207Z,99714.22
2023-12-23T23:24:34.977Z,99733.47
2023-12-23T23:27:04.957Z,99729.06
2023-12-23T23:29:37.888Z,99746.63
2023-12-23T23:32:09.226Z,99736.06
2023-12-23T23:34:39.197Z,99736.91
2023-12-23T23:37:09.080Z,99725.41
2023-12-23T23:39:38.807Z,99735.91
2023-12-23T23:42:08.804Z,99730.63
2023-12-23T23:44:41.134Z,99720.91
2023-12-23T23:47:10.874Z,99742.03
2023-12-23T23:49:41.055Z,99731.47
2023-12-23T23:52:11.522Z,99727.91
2023-12-23T23:54:41.445Z,99730.63
2023-12-23T23:57:11.188Z,99750.75
2023-12-23T23:59:43.582Z,99744.53
